createdAt,value
2018-03-22T00:00:59.905Z,5.10
2018-03-22T00:01:59.890Z,5.10
2018-03-22T00:02:59.876Z,8.20
2018-03-22T00:03:59.868Z,8.10
2018-03-22T00:04:59.857Z,8.40
2018-03-22T00:05:59.845Z,6.30
2018-03-22T00:06:59.838Z,5.40
2018-03-22T00:07:59.830Z,9.30
2018-03-22T00:08:59.815Z,8.10
2018-03-22T00:09:59.805Z,6.80
2018-03-22T00:10:59.796Z,6.60
2018-03-22T00:11:59.789Z,10.10
2018-03-22T00:12:59.776Z,8.30
2018-03-22T00:13:59.769Z,6.40
2018-03-22T00:14:59.768Z,4.90
2018-03-22T00:15:59.771Z,9.90
2018-03-22T00:16:59.739Z,8.20
2018-03-22T00:17:59.733Z,8.00
2018-03-22T00:18:59.718Z,7.00
2018-03-22T00:19:59.707Z,6.10
2018-03-22T00:20:59.698Z,7.90
2018-03-22T00:21:59.710Z,7.10
2018-03-22T00:22:59.683Z,6.10
2018-03-22T00:23:59.668Z,6.20
2018-03-22T00:24:59.663Z,6.50
2018-03-22T00:25:59.649Z,6.10
2018-03-22T00:26:59.648Z,5.50
2018-03-22T00:27:59.627Z,5.30
2018-03-22T00:28:59.634Z,5.80
2018-03-22T00:29:59.609Z,6.00
2018-03-22T00:30:59.596Z,6.70
2018-03-22T00:31:59.588Z,6.50
2018-03-22T00:32:59.614Z,7.60
2018-03-22T00:33:59.567Z,11.70
2018-03-22T00:34:59.561Z,5.70
2018-03-22T00:36:00.765Z,7.80
2018-03-22T00:36:59.537Z,5.10
2018-03-22T00:37:59.533Z,7.10
2018-03-22T00:38:59.518Z,7.40
2018-03-22T00:39:59.511Z,6.30
2018-03-22T00:40:59.987Z,5.10
2018-03-22T00:41:59.505Z,6.10
2018-03-22T00:42:59.476Z,6.70
2018-03-22T00:43:59.466Z,5.50
2018-03-22T00:44:59.456Z,5.10
2018-03-22T00:45:59.444Z,6.40
2018-03-22T00:46:59.441Z,6.00
2018-03-22T00:47:59.425Z,5.00
2018-03-22T00:48:59.416Z,6.40
2018-03-22T00:49:59.404Z,6.50
2018-03-22T00:50:59.397Z,5.90
2018-03-22T00:51:59.383Z,8.30
2018-03-22T00:52:59.375Z,8.40
2018-03-22T00:53:59.368Z,5.50
2018-03-22T00:54:59.352Z,7.30
2018-03-22T00:55:59.348Z,6.80
2018-03-22T00:56:59.337Z,7.00
2018-03-22T00:57:59.324Z,7.40
2018-03-22T00:58:59.314Z,7.80
2018-03-22T00:59:59.326Z,7.20
2018-03-22T01:00:59.995Z,6.80
2018-03-22T01:01:59.283Z,6.40
2018-03-22T01:02:59.278Z,8.50
2018-03-22T01:03:59.262Z,9.00
2018-03-22T01:04:59.260Z,8.90
2018-03-22T01:05:59.244Z,9.20
2018-03-22T01:06:59.231Z,7.70
2018-03-22T01:07:59.224Z,6.60
2018-03-22T01:08:59.221Z,7.40
2018-03-22T01:09:59.200Z,9.30
2018-03-22T01:10:59.195Z,85.80
2018-03-22T01:11:59.180Z,10.40
2018-03-22T01:12:59.171Z,9.40
2018-03-22T01:13:59.168Z,9.10
2018-03-22T01:14:59.156Z,8.20
2018-03-22T01:15:59.140Z,8.20
2018-03-22T01:16:59.131Z,7.40
2018-03-22T01:17:59.120Z,13.30
2018-03-22T01:18:59.118Z,11.90
2018-03-22T01:19:59.101Z,8.30
2018-03-22T01:20:59.091Z,8.00
2018-03-22T01:21:59.082Z,8.40
2018-03-22T01:22:59.070Z,6.30
2018-03-22T01:23:59.061Z,8.70
2018-03-22T01:24:59.055Z,8.90
2018-03-22T01:25:59.042Z,7.80
2018-03-22T01:26:59.032Z,8.20
2018-03-22T01:27:59.021Z,7.70
2018-03-22T01:28:59.026Z,9.00
2018-03-22T01:29:59.008Z,5.80
2018-03-22T01:30:58.989Z,8.90
2018-03-22T01:31:58.988Z,8.10
2018-03-22T01:32:58.971Z,7.90
2018-03-22T01:33:58.963Z,7.10
2018-03-22T01:34:58.951Z,8.10
2018-03-22T01:35:58.942Z,7.80
2018-03-22T01:36:58.931Z,8.50
2018-03-22T01:37:58.924Z,10.00
2018-03-22T01:38:58.913Z,7.20
2018-03-22T01:39:58.902Z,7.50
2018-03-22T01:40:58.892Z,7.40
2018-03-22T01:41:58.881Z,7.30
2018-03-22T01:42:58.882Z,6.90
2018-03-22T01:43:58.863Z,7.70
2018-03-22T01:44:58.852Z,7.20
2018-03-22T01:45:58.842Z,6.90
2018-03-22T01:46:58.831Z,8.10
2018-03-22T01:47:58.821Z,7.90
2018-03-22T01:48:58.810Z,6.00
2018-03-22T01:49:58.803Z,8.10
2018-03-22T01:50:58.791Z,7.00
2018-03-22T01:51:58.786Z,7.50
2018-03-22T01:52:58.770Z,7.00
2018-03-22T01:53:58.760Z,6.10
2018-03-22T01:54:58.752Z,7.70
2018-03-22T01:55:58.743Z,9.30
2018-03-22T01:56:58.731Z,5.70
2018-03-22T01:57:58.723Z,6.30
2018-03-22T01:58:58.713Z,5.20
2018-03-22T01:59:58.705Z,5.10
2018-03-22T02:00:58.692Z,6.50
2018-03-22T02:01:58.684Z,5.30
2018-03-22T02:02:58.673Z,5.30
2018-03-22T02:03:58.666Z,6.30
2018-03-22T02:04:58.653Z,6.70
2018-03-22T02:05:58.692Z,6.50
2018-03-22T02:06:58.636Z,4.30
2018-03-22T02:07:58.630Z,5.00
2018-03-22T02:08:58.619Z,4.90
2018-03-22T02:09:58.602Z,7.50
2018-03-22T02:10:58.603Z,6.30
2018-03-22T02:11:58.593Z,6.80
2018-03-22T02:12:58.574Z,6.20
2018-03-22T02:13:58.564Z,4.60
2018-03-22T02:14:58.552Z,6.50
2018-03-22T02:15:58.543Z,4.90
2018-03-22T02:16:58.531Z,7.10
2018-03-22T02:17:58.526Z,6.90
2018-03-22T02:18:58.516Z,6.20
2018-03-22T02:19:58.503Z,5.40
2018-03-22T02:20:58.492Z,7.40
2018-03-22T02:21:58.482Z,8.20
2018-03-22T02:22:58.484Z,4.90
2018-03-22T02:23:58.462Z,4.70
2018-03-22T02:24:58.452Z,6.80
2018-03-22T02:25:58.453Z,5.40
2018-03-22T02:26:58.433Z,5.00
2018-03-22T02:27:58.423Z,5.90
2018-03-22T02:28:58.413Z,5.70
2018-03-22T02:29:58.403Z,7.20
2018-03-22T02:30:58.394Z,4.20
2018-03-22T02:31:58.388Z,5.80
2018-03-22T02:32:58.378Z,5.80
2018-03-22T02:33:58.363Z,5.90
2018-03-22T02:34:58.360Z,5.40
2018-03-22T02:35:58.346Z,5.40
2018-03-22T02:36:58.345Z,4.40
2018-03-22T02:37:58.330Z,5.50
2018-03-22T02:38:58.320Z,6.00
2018-03-22T02:39:58.336Z,5.80
2018-03-22T02:40:58.296Z,5.40
2018-03-22T02:41:58.303Z,7.00
2018-03-22T02:42:58.277Z,4.50
2018-03-22T02:43:58.267Z,7.90
2018-03-22T02:44:58.260Z,5.30
2018-03-22T02:45:58.247Z,6.30
2018-03-22T02:46:58.246Z,6.00
2018-03-22T02:47:58.235Z,5.70
2018-03-22T02:48:58.223Z,6.20
2018-03-22T02:49:58.210Z,7.00
2018-03-22T02:50:58.199Z,5.90
2018-03-22T02:51:58.195Z,4.60
2018-03-22T02:52:58.193Z,7.60
2018-03-22T02:53:58.171Z,7.10
2018-03-22T02:54:58.161Z,4.50
2018-03-22T02:55:58.153Z,6.50
2018-03-22T02:56:58.143Z,5.30
2018-03-22T02:57:58.130Z,5.60
2018-03-22T02:58:58.129Z,4.20
2018-03-22T02:59:58.109Z,6.20
2018-03-22T03:00:58.100Z,4.30
2018-03-22T03:01:58.135Z,5.70
2018-03-22T03:02:58.090Z,5.40
2018-03-22T03:03:58.071Z,4.60
2018-03-22T03:04:58.064Z,6.20
2018-03-22T03:05:58.050Z,5.10
2018-03-22T03:06:58.055Z,4.70
2018-03-22T03:07:58.033Z,4.40
2018-03-22T03:08:58.019Z,4.90
2018-03-22T03:09:58.011Z,4.90
2018-03-22T03:10:58.003Z,5.80
2018-03-22T03:11:57.990Z,6.10
2018-03-22T03:12:57.979Z,5.90
2018-03-22T03:13:57.969Z,5.00
2018-03-22T03:14:57.959Z,6.40
2018-03-22T03:15:57.952Z,6.80
2018-03-22T03:16:57.957Z,5.80
2018-03-22T03:17:57.931Z,6.40
2018-03-22T03:18:57.971Z,5.70
2018-03-22T03:19:57.910Z,6.50
2018-03-22T03:20:57.899Z,8.00
2018-03-22T03:21:57.891Z,6.20
2018-03-22T03:22:57.880Z,7.80
2018-03-22T03:23:57.871Z,7.70
2018-03-22T03:24:57.859Z,6.00
2018-03-22T03:25:57.850Z,8.80
2018-03-22T03:26:57.947Z,6.00
2018-03-22T03:27:57.833Z,6.10
2018-03-22T03:28:57.820Z,4.70
2018-03-22T03:29:57.810Z,6.40
2018-03-22T03:30:57.803Z,5.70
2018-03-22T03:31:57.794Z,6.50
2018-03-22T03:32:57.788Z,5.50
2018-03-22T03:33:57.776Z,4.60
2018-03-22T03:34:57.766Z,7.00
2018-03-22T03:35:57.750Z,5.90
2018-03-22T03:36:57.782Z,6.40
2018-03-22T03:37:57.730Z,8.40
2018-03-22T03:38:57.719Z,7.40
2018-03-22T03:39:57.717Z,7.50
2018-03-22T03:40:57.719Z,8.30
2018-03-22T03:41:57.689Z,5.10
2018-03-22T03:42:57.681Z,5.40
2018-03-22T03:43:57.670Z,5.50
2018-03-22T03:44:57.659Z,8.10
2018-03-22T03:45:57.652Z,7.00
2018-03-22T03:46:57.641Z,7.60
2018-03-22T03:47:57.631Z,6.30
2018-03-22T03:48:57.621Z,7.20
2018-03-22T03:49:57.612Z,8.80
2018-03-22T03:50:57.601Z,8.20
2018-03-22T03:51:57.595Z,11.40
2018-03-22T03:52:57.581Z,9.50
2018-03-22T03:53:57.573Z,8.60
2018-03-22T03:54:57.569Z,5.50
2018-03-22T03:55:57.550Z,8.90
2018-03-22T03:56:57.541Z,7.50
2018-03-22T03:57:57.540Z,10.70
2018-03-22T03:58:57.561Z,6.60
2018-03-22T03:59:57.511Z,9.30
2018-03-22T04:00:57.499Z,6.60
2018-03-22T04:01:57.489Z,6.90
2018-03-22T04:02:57.480Z,8.30
2018-03-22T04:03:57.471Z,9.50
2018-03-22T04:04:57.474Z,10.10
2018-03-22T04:05:57.450Z,9.00
2018-03-22T04:06:57.440Z,7.50
2018-03-22T04:07:57.433Z,9.10
2018-03-22T04:08:57.420Z,9.80
2018-03-22T04:09:57.415Z,8.70
2018-03-22T04:10:57.403Z,8.70
2018-03-22T04:11:57.390Z,8.00
2018-03-22T04:12:57.382Z,11.00
2018-03-22T04:13:57.371Z,8.10
2018-03-22T04:14:57.372Z,8.90
2018-03-22T04:15:57.350Z,9.30
2018-03-22T04:16:57.340Z,7.10
2018-03-22T04:17:57.333Z,8.10
2018-03-22T04:18:57.321Z,8.00
2018-03-22T04:19:57.311Z,10.00
2018-03-22T04:20:57.304Z,8.30
2018-03-22T04:21:57.292Z,9.10
2018-03-22T04:22:57.283Z,8.10
2018-03-22T04:23:57.280Z,10.60
2018-03-22T04:24:57.261Z,8.80
2018-03-22T04:25:57.253Z,7.50
2018-03-22T04:26:57.242Z,7.40
2018-03-22T04:27:57.232Z,10.00
2018-03-22T04:28:57.221Z,10.60
2018-03-22T04:29:57.211Z,10.60
2018-03-22T04:30:57.201Z,12.30
2018-03-22T04:31:57.191Z,8.80
2018-03-22T04:32:57.181Z,12.70
2018-03-22T04:33:57.171Z,9.40
2018-03-22T04:34:57.161Z,9.60
2018-03-22T04:35:57.155Z,10.80
2018-03-22T04:36:57.142Z,13.00
2018-03-22T04:37:57.133Z,13.00
2018-03-22T04:38:57.133Z,10.80
2018-03-22T04:39:57.112Z,14.80
2018-03-22T04:40:57.104Z,10.70
2018-03-22T04:41:57.091Z,10.10
2018-03-22T04:42:57.082Z,10.60
2018-03-22T04:43:57.074Z,12.50
2018-03-22T04:44:57.068Z,12.00
2018-03-22T04:45:57.054Z,11.80
2018-03-22T04:46:57.043Z,11.20
2018-03-22T04:47:57.036Z,10.40
2018-03-22T04:48:57.023Z,14.10
2018-03-22T04:49:57.017Z,13.40
2018-03-22T04:50:57.004Z,11.60
2018-03-22T04:51:56.998Z,19.30
2018-03-22T04:52:56.986Z,13.10
2018-03-22T04:53:56.973Z,10.30
2018-03-22T04:54:56.963Z,11.10
2018-03-22T04:55:56.954Z,12.30
2018-03-22T04:56:56.943Z,11.50
2018-03-22T04:57:56.939Z,17.40
2018-03-22T04:58:56.924Z,11.60
2018-03-22T04:59:56.916Z,15.50
2018-03-22T05:00:56.926Z,10.10
2018-03-22T05:01:56.895Z,9.70
2018-03-22T05:02:56.888Z,19.00
2018-03-22T05:03:56.895Z,12.40
2018-03-22T05:04:56.865Z,11.20
2018-03-22T05:05:56.857Z,10.30
2018-03-22T05:06:56.859Z,11.80
2018-03-22T05:07:56.839Z,10.00
2018-03-22T05:08:56.828Z,11.20
2018-03-22T05:09:56.818Z,9.30
2018-03-22T05:10:56.806Z,10.40
2018-03-22T05:11:56.799Z,11.30
2018-03-22T05:12:56.787Z,20.30
2018-03-22T05:13:56.781Z,22.20
2018-03-22T05:14:56.769Z,11.00
2018-03-22T05:15:56.761Z,15.10
2018-03-22T05:16:56.748Z,12.00
2018-03-22T05:17:56.741Z,13.40
2018-03-22T05:18:56.734Z,15.20
2018-03-22T05:19:56.723Z,16.80
2018-03-22T05:20:56.713Z,12.70
2018-03-22T05:21:56.703Z,13.00
2018-03-22T05:22:56.694Z,12.20
2018-03-22T05:23:56.686Z,13.70
2018-03-22T05:24:56.672Z,12.40
2018-03-22T05:25:56.663Z,12.70
2018-03-22T05:26:56.655Z,19.60
2018-03-22T05:27:56.645Z,12.30
2018-03-22T05:28:56.634Z,11.80
2018-03-22T05:29:56.625Z,12.60
2018-03-22T05:30:56.620Z,15.20
2018-03-22T05:31:56.612Z,13.70
2018-03-22T05:32:56.597Z,17.70
2018-03-22T05:33:56.587Z,11.60
2018-03-22T05:34:56.578Z,15.20
2018-03-22T05:35:56.571Z,15.20
2018-03-22T05:36:56.559Z,12.40
2018-03-22T05:37:56.551Z,14.80
2018-03-22T05:38:56.542Z,10.80
2018-03-22T05:39:56.588Z,14.80
2018-03-22T05:40:56.521Z,15.00
2018-03-22T05:41:56.518Z,14.30
2018-03-22T05:42:56.505Z,14.50
2018-03-22T05:43:56.495Z,13.50
2018-03-22T05:44:56.484Z,13.30
2018-03-22T05:45:56.478Z,17.10
2018-03-22T05:46:56.468Z,14.30
2018-03-22T05:47:56.463Z,18.10
2018-03-22T05:48:56.447Z,13.60
2018-03-22T05:49:56.440Z,16.40
2018-03-22T05:50:56.434Z,20.90
2018-03-22T05:51:56.422Z,17.40
2018-03-22T05:52:56.413Z,18.40
2018-03-22T05:53:56.403Z,22.10
2018-03-22T05:54:56.395Z,16.90
2018-03-22T05:55:56.383Z,17.20
2018-03-22T05:56:56.380Z,18.30
2018-03-22T05:57:56.381Z,15.60
2018-03-22T05:58:56.359Z,22.00
2018-03-22T05:59:56.349Z,19.10
2018-03-22T06:00:56.338Z,17.90
2018-03-22T06:01:56.332Z,17.80
2018-03-22T06:02:56.327Z,16.90
2018-03-22T06:03:56.312Z,20.30
2018-03-22T06:04:56.302Z,21.90
2018-03-22T06:05:56.293Z,19.40
2018-03-22T06:06:56.286Z,19.90
2018-03-22T06:07:56.274Z,20.50
2018-03-22T06:08:56.271Z,18.80
2018-03-22T06:09:56.438Z,21.20
2018-03-22T06:10:56.248Z,16.90
2018-03-22T06:11:56.242Z,19.50
2018-03-22T06:12:56.231Z,19.30
2018-03-22T06:13:56.221Z,24.90
2018-03-22T06:14:56.219Z,17.30
2018-03-22T06:15:56.204Z,22.60
2018-03-22T06:16:56.192Z,21.00
2018-03-22T06:17:56.188Z,17.50
2018-03-22T06:18:56.186Z,21.90
2018-03-22T06:19:56.213Z,26.30
2018-03-22T06:20:56.156Z,17.60
2018-03-22T06:21:56.168Z,28.10
2018-03-22T06:22:56.139Z,29.90
2018-03-22T06:23:56.135Z,28.00
2018-03-22T06:24:56.124Z,21.30
2018-03-22T06:25:56.125Z,34.10
2018-03-22T06:26:56.106Z,23.90
2018-03-22T06:27:56.100Z,27.10
2018-03-22T06:28:56.088Z,27.50
2018-03-22T06:29:56.075Z,22.60
2018-03-22T06:30:56.070Z,27.20
2018-03-22T06:31:56.060Z,20.80
2018-03-22T06:32:56.052Z,27.60
2018-03-22T06:33:56.044Z,23.00
2018-03-22T06:34:56.034Z,21.50
2018-03-22T06:35:56.024Z,23.20
2018-03-22T06:36:56.019Z,21.20
2018-03-22T06:37:56.011Z,22.90
2018-03-22T06:38:56.010Z,22.90
2018-03-22T06:39:55.993Z,22.80
2018-03-22T06:40:55.982Z,21.50
2018-03-22T06:41:55.984Z,17.50
2018-03-22T06:42:55.979Z,28.10
2018-03-22T06:43:55.959Z,23.10
2018-03-22T06:44:55.946Z,22.10
2018-03-22T06:45:55.941Z,20.50
2018-03-22T06:46:55.934Z,21.40
2018-03-22T06:47:55.922Z,24.00
2018-03-22T06:48:55.912Z,29.20
2018-03-22T06:49:55.904Z,21.80
2018-03-22T06:50:56.143Z,23.60
2018-03-22T06:51:56.014Z,24.00
2018-03-22T06:52:55.977Z,28.90
2018-03-22T06:53:55.910Z,29.90
2018-03-22T06:54:56.038Z,31.30
2018-03-22T06:55:55.988Z,27.80
2018-03-22T06:56:55.973Z,28.00
2018-03-22T06:57:55.836Z,23.90
2018-03-22T06:58:55.831Z,28.30
2018-03-22T06:59:55.822Z,33.60
2018-03-22T07:00:55.813Z,30.90
2018-03-22T07:01:55.804Z,42.10
2018-03-22T07:02:55.794Z,29.60
2018-03-22T07:03:55.788Z,30.40
2018-03-22T07:04:55.782Z,29.70
2018-03-22T07:05:55.774Z,36.70
2018-03-22T07:06:55.789Z,34.70
2018-03-22T07:07:55.753Z,31.80
2018-03-22T07:08:55.745Z,30.80
2018-03-22T07:09:55.741Z,29.70
2018-03-22T07:10:55.730Z,31.10
2018-03-22T07:11:55.720Z,33.80
2018-03-22T07:12:55.715Z,32.30
2018-03-22T07:13:55.704Z,32.70
2018-03-22T07:14:55.698Z,36.40
2018-03-22T07:15:55.695Z,36.40
2018-03-22T07:16:55.681Z,33.90
2018-03-22T07:17:55.671Z,37.20
2018-03-22T07:18:55.674Z,35.10
2018-03-22T07:19:55.658Z,32.40
2018-03-22T07:20:55.653Z,32.80
2018-03-22T07:21:55.643Z,31.80
2018-03-22T07:22:55.637Z,27.90
2018-03-22T07:23:55.626Z,33.20
2018-03-22T07:24:55.614Z,29.90
2018-03-22T07:25:55.657Z,25.80
2018-03-22T07:26:55.612Z,25.80
2018-03-22T07:27:55.592Z,25.50
2018-03-22T07:28:55.586Z,25.30
2018-03-22T07:29:55.578Z,30.80
2018-03-22T07:30:55.571Z,28.90
2018-03-22T07:31:55.565Z,26.90
2018-03-22T07:32:55.572Z,26.00
2018-03-22T07:33:55.547Z,28.80
2018-03-22T07:34:55.537Z,31.60
2018-03-22T07:35:55.531Z,30.60
2018-03-22T07:36:55.523Z,27.90
2018-03-22T07:37:55.515Z,29.20
2018-03-22T07:38:55.507Z,30.50
2018-03-22T07:39:55.501Z,27.80
2018-03-22T07:40:55.496Z,27.20
2018-03-22T07:41:55.484Z,30.10
2018-03-22T07:42:55.560Z,29.20
2018-03-22T07:43:55.472Z,31.10
2018-03-22T07:44:55.461Z,29.60
2018-03-22T07:45:55.456Z,28.20
2018-03-22T07:46:55.446Z,31.10
2018-03-22T07:47:55.449Z,32.10
2018-03-22T07:48:55.436Z,29.90
2018-03-22T07:49:55.424Z,26.10
2018-03-22T07:50:55.419Z,31.40
2018-03-22T07:51:55.409Z,25.60
2018-03-22T07:52:55.403Z,30.50
2018-03-22T07:53:55.402Z,30.00
2018-03-22T07:54:55.387Z,33.10
2018-03-22T07:55:55.379Z,32.30
2018-03-22T07:56:55.375Z,30.30
2018-03-22T07:57:55.364Z,33.50
2018-03-22T07:58:55.385Z,31.60
2018-03-22T07:59:55.356Z,27.00
2018-03-22T08:00:55.346Z,28.60
2018-03-22T08:01:55.336Z,30.90
2018-03-22T08:02:55.327Z,36.20
2018-03-22T08:03:55.440Z,29.80
2018-03-22T08:04:55.312Z,34.70
2018-03-22T08:05:55.451Z,27.70
2018-03-22T08:06:55.306Z,26.00
2018-03-22T08:07:55.290Z,33.10
2018-03-22T08:08:55.296Z,33.10
2018-03-22T08:09:55.288Z,35.20
2018-03-22T08:10:55.281Z,35.50
2018-03-22T08:11:55.261Z,36.40
2018-03-22T08:12:55.281Z,31.60
2018-03-22T08:13:55.254Z,36.90
2018-03-22T08:14:55.331Z,36.00
2018-03-22T08:15:55.234Z,36.60
2018-03-22T08:16:55.226Z,37.90
2018-03-22T08:17:55.217Z,38.80
2018-03-22T08:18:55.224Z,37.50
2018-03-22T08:19:55.201Z,40.40
2018-03-22T08:20:55.196Z,38.00
2018-03-22T08:21:55.188Z,38.90
2018-03-22T08:22:55.192Z,41.20
2018-03-22T08:23:55.186Z,44.00
2018-03-22T08:24:55.179Z,40.70
2018-03-22T08:25:55.160Z,41.50
2018-03-22T08:26:55.337Z,34.30
2018-03-22T08:27:55.142Z,38.90
2018-03-22T08:28:55.144Z,39.20
2018-03-22T08:29:55.125Z,39.40
2018-03-22T08:30:55.119Z,34.00
2018-03-22T08:31:55.150Z,32.70
2018-03-22T08:32:55.109Z,36.00
2018-03-22T08:33:55.130Z,34.90
2018-03-22T08:34:55.242Z,37.10
2018-03-22T08:35:55.082Z,36.70
2018-03-22T08:36:55.101Z,34.10
2018-03-22T08:37:55.127Z,36.30
2018-03-22T08:38:55.074Z,33.70
2018-03-22T08:39:55.051Z,34.40
2018-03-22T08:40:55.043Z,44.20
2018-03-22T08:41:55.034Z,34.90
2018-03-22T08:42:55.031Z,36.30
2018-03-22T08:43:55.021Z,39.60
2018-03-22T08:44:55.013Z,37.90
2018-03-22T08:45:55.005Z,34.10
2018-03-22T08:46:54.998Z,35.50
2018-03-22T08:47:54.994Z,36.30
2018-03-22T08:48:54.982Z,31.40
2018-03-22T08:49:54.996Z,34.50
2018-03-22T08:50:54.969Z,34.50
2018-03-22T08:51:55.010Z,37.90
2018-03-22T08:52:54.953Z,36.20
2018-03-22T08:53:54.945Z,35.20
2018-03-22T08:54:54.977Z,34.30
2018-03-22T08:55:54.931Z,34.50
2018-03-22T08:56:54.923Z,36.60
2018-03-22T08:57:54.916Z,30.40
2018-03-22T08:58:54.909Z,34.60
2018-03-22T08:59:54.902Z,33.30
2018-03-22T09:00:54.895Z,33.00
2018-03-22T09:01:54.886Z,33.10
2018-03-22T09:02:54.883Z,37.30
2018-03-22T09:03:54.871Z,37.00
2018-03-22T09:04:54.979Z,38.30
2018-03-22T09:05:54.857Z,33.10
2018-03-22T09:06:54.851Z,37.50
2018-03-22T09:07:54.843Z,36.40
2018-03-22T09:08:54.838Z,34.10
2018-03-22T09:09:54.829Z,36.10
2018-03-22T09:10:54.838Z,34.20
2018-03-22T09:11:54.814Z,36.60
2018-03-22T09:12:54.805Z,35.00
2018-03-22T09:13:54.805Z,34.40
2018-03-22T09:14:54.796Z,34.90
2018-03-22T09:15:54.784Z,35.50
2018-03-22T09:16:54.782Z,38.50
2018-03-22T09:17:54.809Z,39.10
2018-03-22T09:18:54.770Z,36.40
2018-03-22T09:19:54.757Z,38.00
2018-03-22T09:20:54.750Z,34.00
2018-03-22T09:21:54.739Z,31.90
2018-03-22T09:22:54.740Z,36.00
2018-03-22T09:23:54.726Z,34.20
2018-03-22T09:24:54.769Z,38.70
2018-03-22T09:25:54.715Z,36.10
2018-03-22T09:26:54.704Z,35.10
2018-03-22T09:27:54.701Z,34.50
2018-03-22T09:28:54.691Z,31.60
2018-03-22T09:29:54.688Z,32.40
2018-03-22T09:30:54.716Z,39.10
2018-03-22T09:31:54.905Z,35.80
2018-03-22T09:32:54.680Z,36.10
2018-03-22T09:33:54.655Z,37.60
2018-03-22T09:34:54.731Z,36.90
2018-03-22T09:35:54.643Z,37.10
2018-03-22T09:36:54.634Z,34.00
2018-03-22T09:37:54.634Z,34.40
2018-03-22T09:38:54.621Z,36.30
2018-03-22T09:39:54.613Z,34.10
2018-03-22T09:40:54.606Z,36.50
2018-03-22T09:41:54.678Z,42.10
2018-03-22T09:42:54.592Z,39.00
2018-03-22T09:43:54.584Z,34.40
2018-03-22T09:44:54.581Z,37.40
2018-03-22T09:45:54.572Z,36.70
2018-03-22T09:46:54.565Z,36.00
2018-03-22T09:47:54.557Z,41.30
2018-03-22T09:48:54.551Z,41.00
2018-03-22T09:49:54.544Z,42.30
2018-03-22T09:50:54.543Z,40.70
2018-03-22T09:51:54.534Z,46.10
2018-03-22T09:52:54.523Z,42.10
2018-03-22T09:53:54.522Z,34.40
2018-03-22T09:54:54.519Z,38.00
2018-03-22T09:55:54.504Z,39.50
2018-03-22T09:56:54.555Z,41.50
2018-03-22T09:57:54.497Z,44.30
2018-03-22T09:58:54.490Z,41.10
2018-03-22T09:59:54.495Z,47.20
2018-03-22T10:00:54.469Z,43.30
2018-03-22T10:01:54.462Z,43.30
2018-03-22T10:02:54.486Z,40.60
2018-03-22T10:03:54.450Z,39.30
2018-03-22T10:04:54.444Z,37.10
2018-03-22T10:05:54.436Z,35.10
2018-03-22T10:06:54.429Z,38.50
2018-03-22T10:07:54.422Z,38.60
2018-03-22T10:08:54.415Z,36.30
2018-03-22T10:09:54.410Z,41.50
2018-03-22T10:10:54.403Z,37.80
2018-03-22T10:11:54.398Z,38.60
2018-03-22T10:12:54.391Z,37.70
2018-03-22T10:13:54.391Z,41.60
2018-03-22T10:14:54.389Z,36.00
2018-03-22T10:15:54.369Z,37.70
2018-03-22T10:16:54.367Z,36.30
2018-03-22T10:17:54.357Z,30.40
2018-03-22T10:18:54.352Z,33.50
2018-03-22T10:19:54.345Z,39.40
2018-03-22T10:20:54.336Z,36.70
2018-03-22T10:21:54.331Z,37.40
2018-03-22T10:22:54.339Z,34.70
2018-03-22T10:23:54.320Z,34.40
2018-03-22T10:24:54.312Z,33.40
2018-03-22T10:25:54.310Z,33.50
2018-03-22T10:26:54.309Z,33.20
2018-03-22T10:27:54.302Z,31.50
2018-03-22T10:28:54.289Z,34.50
2018-03-22T10:29:54.281Z,30.70
2018-03-22T10:30:54.274Z,33.20
2018-03-22T10:31:54.272Z,27.40
2018-03-22T10:32:54.261Z,29.30
2018-03-22T10:33:54.254Z,28.90
2018-03-22T10:34:54.256Z,28.00
2018-03-22T10:35:54.297Z,31.20
2018-03-22T10:36:54.236Z,33.50
2018-03-22T10:37:54.230Z,30.60
2018-03-22T10:38:54.226Z,33.60
2018-03-22T10:39:54.221Z,32.30
2018-03-22T10:40:54.215Z,30.80
2018-03-22T10:41:54.232Z,30.10
2018-03-22T10:42:54.198Z,29.90
2018-03-22T10:43:54.197Z,27.80
2018-03-22T10:44:54.189Z,30.20
2018-03-22T10:45:54.185Z,30.50
2018-03-22T10:46:54.170Z,30.50
2018-03-22T10:47:54.167Z,28.10
2018-03-22T10:48:54.156Z,28.20
2018-03-22T10:49:54.153Z,31.30
2018-03-22T10:50:54.147Z,32.60
2018-03-22T10:51:55.065Z,31.00
2018-03-22T10:52:55.352Z,29.50
2018-03-22T10:53:54.129Z,27.70
2018-03-22T10:54:54.118Z,30.90
2018-03-22T10:55:54.125Z,31.30
2018-03-22T10:56:54.105Z,29.40
2018-03-22T10:57:54.102Z,30.50
2018-03-22T10:58:54.093Z,30.90
2018-03-22T10:59:54.171Z,31.20
2018-03-22T11:00:54.172Z,31.70
2018-03-22T11:01:54.079Z,32.50
2018-03-22T11:02:54.073Z,32.70
2018-03-22T11:03:54.130Z,28.80
2018-03-22T11:04:54.063Z,31.50
2018-03-22T11:05:54.049Z,33.50
2018-03-22T11:06:54.047Z,32.40
2018-03-22T11:07:54.038Z,37.70
2018-03-22T11:08:54.032Z,33.10
2018-03-22T11:09:54.032Z,33.00
2018-03-22T11:10:54.019Z,38.00
2018-03-22T11:11:54.064Z,35.40
2018-03-22T11:12:54.034Z,32.50
2018-03-22T11:13:54.016Z,34.40
2018-03-22T11:14:53.992Z,32.90
2018-03-22T11:15:53.996Z,35.20
2018-03-22T11:16:53.978Z,33.30
2018-03-22T11:17:53.971Z,32.50
2018-03-22T11:18:53.984Z,34.00
2018-03-22T11:19:53.965Z,32.30
2018-03-22T11:20:53.960Z,36.60
2018-03-22T11:21:53.983Z,32.90
2018-03-22T11:22:53.944Z,34.90
2018-03-22T11:23:53.935Z,35.20
2018-03-22T11:24:53.929Z,35.50
2018-03-22T11:25:53.924Z,33.50
2018-03-22T11:26:53.932Z,33.30
2018-03-22T11:27:53.912Z,37.40
2018-03-22T11:28:53.903Z,33.20
2018-03-22T11:29:53.898Z,37.30
2018-03-22T11:30:53.891Z,36.50
2018-03-22T11:31:53.884Z,35.40
2018-03-22T11:32:53.879Z,38.20
2018-03-22T11:33:53.872Z,34.90
2018-03-22T11:34:53.868Z,36.60
2018-03-22T11:35:53.862Z,33.50
2018-03-22T11:36:53.860Z,38.30
2018-03-22T11:37:53.852Z,36.80
2018-03-22T11:38:53.846Z,37.60
2018-03-22T11:39:53.833Z,35.10
2018-03-22T11:40:53.831Z,34.70
2018-03-22T11:41:53.819Z,37.80
2018-03-22T11:42:53.815Z,35.50
2018-03-22T11:43:53.811Z,33.40
2018-03-22T11:44:53.800Z,36.50
2018-03-22T11:45:53.794Z,36.90
2018-03-22T11:46:53.792Z,34.70
2018-03-22T11:47:53.791Z,34.50
2018-03-22T11:48:53.772Z,34.70
2018-03-22T11:49:53.776Z,37.70
2018-03-22T11:50:53.782Z,35.00
2018-03-22T11:51:53.754Z,36.00
2018-03-22T11:52:53.753Z,37.50
2018-03-22T11:53:53.775Z,42.60
2018-03-22T11:54:53.784Z,36.20
2018-03-22T11:55:53.726Z,37.20
2018-03-22T11:56:53.722Z,35.00
2018-03-22T11:57:53.732Z,34.80
2018-03-22T11:58:53.713Z,37.20
2018-03-22T11:59:53.708Z,36.50
2018-03-22T12:00:53.695Z,34.90
2018-03-22T12:01:53.717Z,42.00
2018-03-22T12:02:53.679Z,38.90
2018-03-22T12:03:53.684Z,38.10
2018-03-22T12:04:53.665Z,39.20
2018-03-22T12:05:53.659Z,41.20
2018-03-22T12:06:53.657Z,44.20
2018-03-22T12:07:53.647Z,44.80
2018-03-22T12:08:53.639Z,41.30
2018-03-22T12:09:53.631Z,44.50
2018-03-22T12:10:53.624Z,40.70
2018-03-22T12:11:53.618Z,40.10
2018-03-22T12:12:53.613Z,38.10
2018-03-22T12:13:53.606Z,37.10
2018-03-22T12:14:53.598Z,34.50
2018-03-22T12:15:53.592Z,90.90
2018-03-22T12:16:53.589Z,38.00
2018-03-22T12:17:53.576Z,34.60
2018-03-22T12:18:53.569Z,40.10
2018-03-22T12:19:53.564Z,38.30
2018-03-22T12:20:53.567Z,41.40
2018-03-22T12:21:53.559Z,44.00
2018-03-22T12:22:53.553Z,42.80
2018-03-22T12:23:53.539Z,42.50
2018-03-22T12:24:53.565Z,42.10
2018-03-22T12:25:53.525Z,39.90
2018-03-22T12:26:53.516Z,42.40
2018-03-22T12:27:53.510Z,46.00
2018-03-22T12:28:53.506Z,45.00
2018-03-22T12:29:53.496Z,49.70
2018-03-22T12:30:53.488Z,43.40
2018-03-22T12:31:53.481Z,44.20
2018-03-22T12:32:53.493Z,43.30
2018-03-22T12:33:53.469Z,45.90
2018-03-22T12:34:53.468Z,47.10
2018-03-22T12:35:53.455Z,48.50
2018-03-22T12:36:53.447Z,41.50
2018-03-22T12:37:53.441Z,46.00
2018-03-22T12:38:53.439Z,44.70
2018-03-22T12:39:53.438Z,45.30
2018-03-22T12:40:53.421Z,50.80
2018-03-22T12:41:53.413Z,48.10
2018-03-22T12:42:53.408Z,48.80
2018-03-22T12:43:53.402Z,45.00
2018-03-22T12:44:53.403Z,44.80
2018-03-22T12:45:53.394Z,43.10
2018-03-22T12:46:53.387Z,38.90
2018-03-22T12:47:53.373Z,42.20
2018-03-22T12:48:53.367Z,41.70
2018-03-22T12:49:53.406Z,43.60
2018-03-22T12:50:53.354Z,41.70
2018-03-22T12:51:53.348Z,40.40
2018-03-22T12:52:53.344Z,35.10
2018-03-22T12:53:53.336Z,31.90
2018-03-22T12:54:53.329Z,34.40
2018-03-22T12:55:53.326Z,37.40
2018-03-22T12:56:53.315Z,34.30
2018-03-22T12:57:53.307Z,35.70
2018-03-22T12:58:53.302Z,30.30
2018-03-22T12:59:53.295Z,36.00
2018-03-22T13:00:53.290Z,35.30
2018-03-22T13:01:53.282Z,35.10